sensor_id;sensor_type;location;lat;lon;timestamp;temperature;humidity
12588;DHT22;6359;51.450;7.346;2023-05-20T00:01:40;8.50;99.90
12588;DHT22;6359;51.450;7.346;2023-05-20T00:04:07;8.50;99.90
12588;DHT22;6359;51.450;7.346;2023-05-20T00:06:34;8.50;99.90
12588;DHT22;6359;51.450;7.346;2023-05-20T00:09:01;8.50;99.90
12588;DHT22;6359;51.450;7.346;2023-05-20T00:11:28;8.50;99.90
12588;DHT22;6359;51.450;7.346;2023-05-20T00:13:57;8.40;99.90
12588;DHT22;6359;51.450;7.346;2023-05-20T00:16:23;8.40;99.90
12588;DHT22;6359;51.450;7.346;2023-05-20T00:18:50;8.40;99.90
12588;DHT22;6359;51.450;7.346;2023-05-20T00:21:17;8.40;99.90
12588;DHT22;6359;51.450;7.346;2023-05-20T00:23:44;8.40;99.90
12588;DHT22;6359;51.450;7.346;2023-05-20T00:26:11;8.40;99.90
12588;DHT22;6359;51.450;7.346;2023-05-20T00:28:38;8.50;99.90
12588;DHT22;6359;51.450;7.346;2023-05-20T00:31:06;8.50;99.90
12588;DHT22;6359;51.450;7.346;2023-05-20T00:33:35;8.60;99.90
12588;DHT22;6359;51.450;7.346;2023-05-20T00:36:02;8.70;99.90
12588;DHT22;6359;51.450;7.346;2023-05-20T00:38:29;8.70;99.90
12588;DHT22;6359;51.450;7.346;2023-05-20T00:40:56;8.90;99.90
12588;DHT22;6359;51.450;7.346;2023-05-20T00:43:23;9.00;99.90
12588;DHT22;6359;51.450;7.346;2023-05-20T00:45:51;9.00;99.90
12588;DHT22;6359;51.450;7.346;2023-05-20T00:48:20;9.10;99.90
12588;DHT22;6359;51.450;7.346;2023-05-20T00:50:47;9.00;99.90
12588;DHT22;6359;51.450;7.346;2023-05-20T00:53:16;9.10;99.90
12588;DHT22;6359;51.450;7.346;2023-05-20T00:55:43;9.00;99.90
12588;DHT22;6359;51.450;7.346;2023-05-20T00:58:11;9.00;99.90
12588;DHT22;6359;51.450;7.346;2023-05-20T01:00:38;8.90;99.90
12588;DHT22;6359;51.450;7.346;2023-05-20T01:03:05;8.80;99.90
12588;DHT22;6359;51.450;7.346;2023-05-20T01:05:33;8.80;99.90
12588;DHT22;6359;51.450;7.346;2023-05-20T01:08:00;8.70;99.90
12588;DHT22;6359;51.450;7.346;2023-05-20T01:10:28;8.70;99.90
12588;DHT22;6359;51.450;7.346;2023-05-20T01:12:58;8.50;99.90
12588;DHT22;6359;51.450;7.346;2023-05-20T01:15:27;8.50;99.90
12588;DHT22;6359;51.450;7.346;2023-05-20T01:17:58;8.50;99.90
12588;DHT22;6359;51.450;7.346;2023-05-20T01:20:27;8.50;99.90
12588;DHT22;6359;51.450;7.346;2023-05-20T01:22:58;8.50;99.90
12588;DHT22;6359;51.450;7.346;2023-05-20T01:25:25;8.40;99.90
12588;DHT22;6359;51.450;7.346;2023-05-20T01:27:53;8.50;99.90
12588;DHT22;6359;51.450;7.346;2023-05-20T01:30:21;8.60;99.90
12588;DHT22;6359;51.450;7.346;2023-05-20T01:32:53;8.70;99.90
12588;DHT22;6359;51.450;7.346;2023-05-20T01:35:21;8.70;99.90
12588;DHT22;6359;51.450;7.346;2023-05-20T01:37:49;8.70;99.90
12588;DHT22;6359;51.450;7.346;2023-05-20T01:40:19;8.70;99.90
12588;DHT22;6359;51.450;7.346;2023-05-20T01:42:46;8.80;99.90
12588;DHT22;6359;51.450;7.346;2023-05-20T01:45:17;8.80;99.90
12588;DHT22;6359;51.450;7.346;2023-05-20T01:47:44;8.90;99.90
12588;DHT22;6359;51.450;7.346;2023-05-20T01:50:11;9.00;99.90
12588;DHT22;6359;51.450;7.346;2023-05-20T01:52:38;9.00;99.90
12588;DHT22;6359;51.450;7.346;2023-05-20T01:55:05;8.90;99.90
12588;DHT22;6359;51.450;7.346;2023-05-20T01:57:34;9.00;99.90
12588;DHT22;6359;51.450;7.346;2023-05-20T02:00:01;9.10;99.90
12588;DHT22;6359;51.450;7.346;2023-05-20T02:02:28;9.10;99.90
12588;DHT22;6359;51.450;7.346;2023-05-20T02:04:55;9.10;99.90
12588;DHT22;6359;51.450;7.346;2023-05-20T02:07:21;9.10;99.90
12588;DHT22;6359;51.450;7.346;2023-05-20T02:09:48;9.10;99.90
12588;DHT22;6359;51.450;7.346;2023-05-20T02:12:15;9.10;99.90
12588;DHT22;6359;51.450;7.346;2023-05-20T02:14:44;9.10;99.90
12588;DHT22;6359;51.450;7.346;2023-05-20T02:17:11;9.10;99.90
12588;DHT22;6359;51.450;7.346;2023-05-20T02:19:39;9.10;99.90
12588;DHT22;6359;51.450;7.346;2023-05-20T02:22:06;9.20;99.90
12588;DHT22;6359;51.450;7.346;2023-05-20T02:24:32;9.10;99.90
12588;DHT22;6359;51.450;7.346;2023-05-20T02:26:59;9.20;99.90
12588;DHT22;6359;51.450;7.346;2023-05-20T02:29:29;9.20;99.90
12588;DHT22;6359;51.450;7.346;2023-05-20T02:31:57;9.20;99.90
12588;DHT22;6359;51.450;7.346;2023-05-20T02:34:24;9.30;99.90
12588;DHT22;6359;51.450;7.346;2023-05-20T02:36:51;9.30;99.90
12588;DHT22;6359;51.450;7.346;2023-05-20T02:39:18;9.30;99.90
12588;DHT22;6359;51.450;7.346;2023-05-20T02:41:45;9.20;99.90
12588;DHT22;6359;51.450;7.346;2023-05-20T02:44:12;9.20;99.90
12588;DHT22;6359;51.450;7.346;2023-05-20T02:46:39;9.10;99.90
12588;DHT22;6359;51.450;7.346;2023-05-20T02:49:07;9.10;99.90
12588;DHT22;6359;51.450;7.346;2023-05-20T02:51:35;9.10;99.90
12588;DHT22;6359;51.450;7.346;2023-05-20T02:54:02;9.10;99.90
12588;DHT22;6359;51.450;7.346;2023-05-20T02:56:29;9.10;99.90
12588;DHT22;6359;51.450;7.346;2023-05-20T02:58:57;9.20;99.90
12588;DHT22;6359;51.450;7.346;2023-05-20T03:01:24;9.20;99.90
12588;DHT22;6359;51.450;7.346;2023-05-20T03:03:51;9.20;99.90
12588;DHT22;6359;51.450;7.346;2023-05-20T03:06:20;9.20;99.90
12588;DHT22;6359;51.450;7.346;2023-05-20T03:08:47;9.20;99.90
12588;DHT22;6359;51.450;7.346;2023-05-20T03:11:13;9.30;99.90
12588;DHT22;6359;51.450;7.346;2023-05-20T03:13:40;9.30;99.90
12588;DHT22;6359;51.450;7.346;2023-05-20T03:16:07;9.20;99.90
12588;DHT22;6359;51.450;7.346;2023-05-20T03:18:34;9.20;99.90
12588;DHT22;6359;51.450;7.346;2023-05-20T03:21:01;9.10;99.90
12588;DHT22;6359;51.450;7.346;2023-05-20T03:23:30;9.10;99.90
12588;DHT22;6359;51.450;7.346;2023-05-20T03:25:56;9.00;99.90
12588;DHT22;6359;51.450;7.346;2023-05-20T03:28:24;9.00;99.90
12588;DHT22;6359;51.450;7.346;2023-05-20T03:30:51;9.00;99.90
12588;DHT22;6359;51.450;7.346;2023-05-20T03:33:17;9.00;99.90
12588;DHT22;6359;51.450;7.346;2023-05-20T03:35:45;9.00;99.90
12588;DHT22;6359;51.450;7.346;2023-05-20T03:38:12;9.00;99.90
12588;DHT22;6359;51.450;7.346;2023-05-20T03:40:40;8.90;99.90
12588;DHT22;6359;51.450;7.346;2023-05-20T03:43:07;8.90;99.90
12588;DHT22;6359;51.450;7.346;2023-05-20T03:45:33;8.90;99.90
12588;DHT22;6359;51.450;7.346;2023-05-20T03:48:00;8.90;99.90
12588;DHT22;6359;51.450;7.346;2023-05-20T03:50:29;8.80;99.90
12588;DHT22;6359;51.450;7.346;2023-05-20T03:52:56;8.90;99.90
12588;DHT22;6359;51.450;7.346;2023-05-20T03:55:23;9.00;99.90
12588;DHT22;6359;51.450;7.346;2023-05-20T03:57:51;9.00;99.90
12588;DHT22;6359;51.450;7.346;2023-05-20T04:00:18;9.00;99.90
12588;DHT22;6359;51.450;7.346;2023-05-20T04:02:45;9.10;99.90
12588;DHT22;6359;51.450;7.346;2023-05-20T04:05:12;9.10;99.90
12588;DHT22;6359;51.450;7.346;2023-05-20T04:07:39;9.20;99.90
12588;DHT22;6359;51.450;7.346;2023-05-20T04:10:07;9.30;99.90
12588;DHT22;6359;51.450;7.346;2023-05-20T04:12:34;9.40;99.90
12588;DHT22;6359;51.450;7.346;2023-05-20T04:15:05;9.40;99.90
12588;DHT22;6359;51.450;7.346;2023-05-20T04:17:32;9.50;99.90
12588;DHT22;6359;51.450;7.346;2023-05-20T04:19:59;9.60;99.90
12588;DHT22;6359;51.450;7.346;2023-05-20T04:22:26;9.60;99.90
12588;DHT22;6359;51.450;7.346;2023-05-20T04:24:53;9.80;99.90
12588;DHT22;6359;51.450;7.346;2023-05-20T04:27:20;9.80;99.90
12588;DHT22;6359;51.450;7.346;2023-05-20T04:29:48;9.90;99.90
12588;DHT22;6359;51.450;7.346;2023-05-20T04:32:18;10.00;99.90
12588;DHT22;6359;51.450;7.346;2023-05-20T04:34:46;10.20;99.90
12588;DHT22;6359;51.450;7.346;2023-05-20T04:37:13;10.30;99.90
12588;DHT22;6359;51.450;7.346;2023-05-20T04:39:40;10.40;99.90
12588;DHT22;6359;51.450;7.346;2023-05-20T04:42:08;10.60;99.90
12588;DHT22;6359;51.450;7.346;2023-05-20T04:44:35;10.70;99.90
12588;DHT22;6359;51.450;7.346;2023-05-20T04:47:02;10.90;99.90
12588;DHT22;6359;51.450;7.346;2023-05-20T04:49:30;11.00;99.90
12588;DHT22;6359;51.450;7.346;2023-05-20T04:51:57;11.10;99.90
12588;DHT22;6359;51.450;7.346;2023-05-20T04:54:25;11.10;99.90
12588;DHT22;6359;51.450;7.346;2023-05-20T04:56:52;11.20;99.90
12588;DHT22;6359;51.450;7.346;2023-05-20T04:59:19;11.40;99.90
12588;DHT22;6359;51.450;7.346;2023-05-20T05:01:45;11.40;99.90
12588;DHT22;6359;51.450;7.346;2023-05-20T05:04:12;11.50;99.90
12588;DHT22;6359;51.450;7.346;2023-05-20T05:06:41;11.60;99.90
12588;DHT22;6359;51.450;7.346;2023-05-20T05:09:08;11.60;99.90
12588;DHT22;6359;51.450;7.346;2023-05-20T05:11:35;11.70;99.90
12588;DHT22;6359;51.450;7.346;2023-05-20T05:14:02;11.80;99.90
12588;DHT22;6359;51.450;7.346;2023-05-20T05:16:28;11.80;99.90
12588;DHT22;6359;51.450;7.346;2023-05-20T05:18:55;11.90;99.90
12588;DHT22;6359;51.450;7.346;2023-05-20T05:21:22;12.00;99.90
12588;DHT22;6359;51.450;7.346;2023-05-20T05:23:50;12.00;99.90
12588;DHT22;6359;51.450;7.346;2023-05-20T05:26:17;12.30;99.90
12588;DHT22;6359;51.450;7.346;2023-05-20T05:28:44;12.60;99.90
12588;DHT22;6359;51.450;7.346;2023-05-20T05:31:11;13.60;99.90
12588;DHT22;6359;51.450;7.346;2023-05-20T05:33:38;15.00;99.90
12588;DHT22;6359;51.450;7.346;2023-05-20T05:36:05;15.60;99.90
12588;DHT22;6359;51.450;7.346;2023-05-20T05:38:32;15.10;99.90
12588;DHT22;6359;51.450;7.346;2023-05-20T05:41:00;15.80;99.90
12588;DHT22;6359;51.450;7.346;2023-05-20T05:43:27;17.20;99.90
12588;DHT22;6359;51.450;7.346;2023-05-20T05:45:54;18.80;99.90
12588;DHT22;6359;51.450;7.346;2023-05-20T05:48:21;19.20;99.90
12588;DHT22;6359;51.450;7.346;2023-05-20T05:50:48;19.60;99.90
12588;DHT22;6359;51.450;7.346;2023-05-20T05:53:15;20.10;99.90
12588;DHT22;6359;51.450;7.346;2023-05-20T05:55:42;20.70;99.90
12588;DHT22;6359;51.450;7.346;2023-05-20T05:58:10;21.30;99.90
12588;DHT22;6359;51.450;7.346;2023-05-20T06:00:37;21.20;99.90
12588;DHT22;6359;51.450;7.346;2023-05-20T06:03:04;21.60;99.90
12588;DHT22;6359;51.450;7.346;2023-05-20T06:05:31;21.30;99.90
12588;DHT22;6359;51.450;7.346;2023-05-20T06:07:58;21.10;99.90
12588;DHT22;6359;51.450;7.346;2023-05-20T06:10:25;20.10;99.90
12588;DHT22;6359;51.450;7.346;2023-05-20T06:12:52;19.90;99.90
12588;DHT22;6359;51.450;7.346;2023-05-20T06:15:20;19.80;99.90
12588;DHT22;6359;51.450;7.346;2023-05-20T06:17:47;19.50;99.90
12588;DHT22;6359;51.450;7.346;2023-05-20T06:20:14;20.20;99.90
12588;DHT22;6359;51.450;7.346;2023-05-20T06:22:41;20.30;99.90
12588;DHT22;6359;51.450;7.346;2023-05-20T06:25:09;21.20;99.90
12588;DHT22;6359;51.450;7.346;2023-05-20T06:27:36;21.90;99.90
12588;DHT22;6359;51.450;7.346;2023-05-20T06:30:03;21.20;99.90
12588;DHT22;6359;51.450;7.346;2023-05-20T06:32:31;19.40;99.90
12588;DHT22;6359;51.450;7.346;2023-05-20T06:34:58;18.00;99.90
12588;DHT22;6359;51.450;7.346;2023-05-20T06:37:25;17.10;99.90
12588;DHT22;6359;51.450;7.346;2023-05-20T06:39:52;16.50;99.90
12588;DHT22;6359;51.450;7.346;2023-05-20T06:42:19;16.20;99.90
12588;DHT22;6359;51.450;7.346;2023-05-20T06:44:46;16.20;99.90
12588;DHT22;6359;51.450;7.346;2023-05-20T06:47:14;16.20;99.90
12588;DHT22;6359;51.450;7.346;2023-05-20T06:49:43;16.00;99.90
12588;DHT22;6359;51.450;7.346;2023-05-20T06:52:10;15.70;99.90
12588;DHT22;6359;51.450;7.346;2023-05-20T06:54:37;15.40;99.90
12588;DHT22;6359;51.450;7.346;2023-05-20T06:57:06;15.10;99.90
12588;DHT22;6359;51.450;7.346;2023-05-20T06:59:33;15.10;99.90
12588;DHT22;6359;51.450;7.346;2023-05-20T07:02:00;15.30;99.90
12588;DHT22;6359;51.450;7.346;2023-05-20T07:04:27;15.30;99.90
12588;DHT22;6359;51.450;7.346;2023-05-20T07:06:55;15.10;99.90
12588;DHT22;6359;51.450;7.346;2023-05-20T07:09:22;15.10;99.90
12588;DHT22;6359;51.450;7.346;2023-05-20T07:11:49;15.10;99.90
12588;DHT22;6359;51.450;7.346;2023-05-20T07:14:16;15.00;99.90
12588;DHT22;6359;51.450;7.346;2023-05-20T07:16:43;14.80;99.90
12588;DHT22;6359;51.450;7.346;2023-05-20T07:19:10;14.70;99.90
12588;DHT22;6359;51.450;7.346;2023-05-20T07:21:36;14.60;99.90
12588;DHT22;6359;51.450;7.346;2023-05-20T07:24:05;14.60;99.90
12588;DHT22;6359;51.450;7.346;2023-05-20T07:26:32;14.50;99.90
12588;DHT22;6359;51.450;7.346;2023-05-20T07:29:01;14.70;99.90
12588;DHT22;6359;51.450;7.346;2023-05-20T07:31:28;14.70;99.90
12588;DHT22;6359;51.450;7.346;2023-05-20T07:33:55;14.90;99.90
12588;DHT22;6359;51.450;7.346;2023-05-20T07:36:22;15.10;99.90
12588;DHT22;6359;51.450;7.346;2023-05-20T07:38:49;15.00;99.90
12588;DHT22;6359;51.450;7.346;2023-05-20T07:41:17;15.20;99.90
12588;DHT22;6359;51.450;7.346;2023-05-20T07:43:45;15.60;99.90
12588;DHT22;6359;51.450;7.346;2023-05-20T07:46:11;15.80;99.90
12588;DHT22;6359;51.450;7.346;2023-05-20T07:48:38;16.10;99.90
12588;DHT22;6359;51.450;7.346;2023-05-20T07:51:05;16.30;99.90
12588;DHT22;6359;51.450;7.346;2023-05-20T07:53:32;16.00;99.90
12588;DHT22;6359;51.450;7.346;2023-05-20T07:55:59;15.90;99.90
12588;DHT22;6359;51.450;7.346;2023-05-20T07:58:28;15.90;99.90
12588;DHT22;6359;51.450;7.346;2023-05-20T08:00:56;16.00;99.90
12588;DHT22;6359;51.450;7.346;2023-05-20T08:03:23;16.30;99.90
12588;DHT22;6359;51.450;7.346;2023-05-20T08:05:51;16.20;99.90
12588;DHT22;6359;51.450;7.346;2023-05-20T08:08:18;16.40;99.90
12588;DHT22;6359;51.450;7.346;2023-05-20T08:10:45;16.30;99.90
12588;DHT22;6359;51.450;7.346;2023-05-20T08:13:11;16.10;99.90
12588;DHT22;6359;51.450;7.346;2023-05-20T08:15:40;16.10;99.90
12588;DHT22;6359;51.450;7.346;2023-05-20T08:18:07;16.20;99.90
12588;DHT22;6359;51.450;7.346;2023-05-20T08:20:34;16.10;99.90
12588;DHT22;6359;51.450;7.346;2023-05-20T08:23:01;16.10;99.90
12588;DHT22;6359;51.450;7.346;2023-05-20T08:25:28;15.90;99.90
12588;DHT22;6359;51.450;7.346;2023-05-20T08:27:55;16.30;99.90
12588;DHT22;6359;51.450;7.346;2023-05-20T08:30:22;16.50;99.90
12588;DHT22;6359;51.450;7.346;2023-05-20T08:32:50;16.90;99.90
12588;DHT22;6359;51.450;7.346;2023-05-20T08:35:17;16.80;99.90
12588;DHT22;6359;51.450;7.346;2023-05-20T08:37:44;16.50;99.90
12588;DHT22;6359;51.450;7.346;2023-05-20T08:40:12;16.40;99.90
12588;DHT22;6359;51.450;7.346;2023-05-20T08:42:41;16.40;99.90
12588;DHT22;6359;51.450;7.346;2023-05-20T08:45:10;16.50;99.90
12588;DHT22;6359;51.450;7.346;2023-05-20T08:47:39;16.70;99.90
12588;DHT22;6359;51.450;7.346;2023-05-20T08:50:09;17.00;99.90
12588;DHT22;6359;51.450;7.346;2023-05-20T08:52:38;16.60;99.90
12588;DHT22;6359;51.450;7.346;2023-05-20T08:55:10;16.40;99.90
12588;DHT22;6359;51.450;7.346;2023-05-20T08:57:39;16.20;99.90
12588;DHT22;6359;51.450;7.346;2023-05-20T09:00:11;16.30;99.90
12588;DHT22;6359;51.450;7.346;2023-05-20T09:02:41;16.20;99.90
12588;DHT22;6359;51.450;7.346;2023-05-20T09:05:11;16.10;99.90
12588;DHT22;6359;51.450;7.346;2023-05-20T09:07:38;16.20;99.90
12588;DHT22;6359;51.450;7.346;2023-05-20T09:10:08;16.10;99.90
12588;DHT22;6359;51.450;7.346;2023-05-20T09:12:35;16.20;99.90
12588;DHT22;6359;51.450;7.346;2023-05-20T09:15:02;16.40;99.90
12588;DHT22;6359;51.450;7.346;2023-05-20T09:17:29;16.60;99.90
12588;DHT22;6359;51.450;7.346;2023-05-20T09:19:56;16.80;99.90
12588;DHT22;6359;51.450;7.346;2023-05-20T09:22:25;16.80;99.90
12588;DHT22;6359;51.450;7.346;2023-05-20T09:24:53;16.90;99.90
12588;DHT22;6359;51.450;7.346;2023-05-20T09:27:20;16.70;99.90
12588;DHT22;6359;51.450;7.346;2023-05-20T09:29:49;16.70;99.90
12588;DHT22;6359;51.450;7.346;2023-05-20T09:32:16;16.60;99.90
12588;DHT22;6359;51.450;7.346;2023-05-20T09:34:45;16.90;99.90
12588;DHT22;6359;51.450;7.346;2023-05-20T09:37:13;17.20;99.90
12588;DHT22;6359;51.450;7.346;2023-05-20T09:39:51;17.30;99.90
12588;DHT22;6359;51.450;7.346;2023-05-20T09:42:22;17.30;99.90
12588;DHT22;6359;51.450;7.346;2023-05-20T09:44:53;17.20;99.90
12588;DHT22;6359;51.450;7.346;2023-05-20T09:47:22;17.00;99.90
12588;DHT22;6359;51.450;7.346;2023-05-20T09:49:51;16.80;99.90
12588;DHT22;6359;51.450;7.346;2023-05-20T09:52:18;16.80;99.90
12588;DHT22;6359;51.450;7.346;2023-05-20T09:54:47;16.50;99.90
12588;DHT22;6359;51.450;7.346;2023-05-20T09:57:15;16.40;99.90
12588;DHT22;6359;51.450;7.346;2023-05-20T09:59:43;16.40;99.90
12588;DHT22;6359;51.450;7.346;2023-05-20T10:02:11;16.60;99.90
12588;DHT22;6359;51.450;7.346;2023-05-20T10:04:47;16.60;99.90
12588;DHT22;6359;51.450;7.346;2023-05-20T10:07:42;16.80;99.90
12588;DHT22;6359;51.450;7.346;2023-05-20T10:10:23;16.90;99.90
12588;DHT22;6359;51.450;7.346;2023-05-20T10:13:01;16.90;99.90
12588;DHT22;6359;51.450;7.346;2023-05-20T10:15:37;17.10;99.90
12588;DHT22;6359;51.450;7.346;2023-05-20T10:18:14;17.10;99.90
12588;DHT22;6359;51.450;7.346;2023-05-20T10:20:45;16.70;99.90
12588;DHT22;6359;51.450;7.346;2023-05-20T10:23:20;17.00;99.90
12588;DHT22;6359;51.450;7.346;2023-05-20T10:25:53;17.20;99.90
12588;DHT22;6359;51.450;7.346;2023-05-20T10:28:28;17.10;99.90
12588;DHT22;6359;51.450;7.346;2023-05-20T10:30:55;17.20;99.90
12588;DHT22;6359;51.450;7.346;2023-05-20T10:33:22;17.40;99.90
12588;DHT22;6359;51.450;7.346;2023-05-20T10:35:50;17.60;99.90
12588;DHT22;6359;51.450;7.346;2023-05-20T10:38:17;17.30;99.90
12588;DHT22;6359;51.450;7.346;2023-05-20T10:40:45;17.80;99.90
12588;DHT22;6359;51.450;7.346;2023-05-20T10:43:15;18.10;99.90
12588;DHT22;6359;51.450;7.346;2023-05-20T10:45:47;18.20;99.90
12588;DHT22;6359;51.450;7.346;2023-05-20T10:48:25;18.60;99.90
12588;DHT22;6359;51.450;7.346;2023-05-20T10:50:57;18.50;99.90
12588;DHT22;6359;51.450;7.346;2023-05-20T10:53:25;19.00;99.90
12588;DHT22;6359;51.450;7.346;2023-05-20T10:55:53;19.20;99.90
12588;DHT22;6359;51.450;7.346;2023-05-20T10:58:23;18.50;99.90
12588;DHT22;6359;51.450;7.346;2023-05-20T11:00:53;18.80;99.90
12588;DHT22;6359;51.450;7.346;2023-05-20T11:03:21;19.10;99.90
12588;DHT22;6359;51.450;7.346;2023-05-20T11:05:48;19.50;99.90
12588;DHT22;6359;51.450;7.346;2023-05-20T11:08:15;19.70;99.90
12588;DHT22;6359;51.450;7.346;2023-05-20T11:10:42;19.80;99.90
12588;DHT22;6359;51.450;7.346;2023-05-20T11:13:12;19.70;99.90
12588;DHT22;6359;51.450;7.346;2023-05-20T11:15:41;20.00;99.90
12588;DHT22;6359;51.450;7.346;2023-05-20T11:18:10;19.80;99.90
12588;DHT22;6359;51.450;7.346;2023-05-20T11:20:37;19.50;99.90
12588;DHT22;6359;51.450;7.346;2023-05-20T11:23:05;20.10;99.90
12588;DHT22;6359;51.450;7.346;2023-05-20T11:25:32;20.50;99.90
12588;DHT22;6359;51.450;7.346;2023-05-20T11:27:59;20.80;99.90
12588;DHT22;6359;51.450;7.346;2023-05-20T11:30:26;20.90;99.90
12588;DHT22;6359;51.450;7.346;2023-05-20T11:32:58;21.00;99.90
12588;DHT22;6359;51.450;7.346;2023-05-20T11:35:26;21.90;99.90
12588;DHT22;6359;51.450;7.346;2023-05-20T11:37:55;21.90;99.90
12588;DHT22;6359;51.450;7.346;2023-05-20T11:40:24;21.40;99.90
12588;DHT22;6359;51.450;7.346;2023-05-20T11:42:55;21.00;99.90
12588;DHT22;6359;51.450;7.346;2023-05-20T11:45:22;20.50;99.90
12588;DHT22;6359;51.450;7.346;2023-05-20T11:48:01;20.60;99.90
12588;DHT22;6359;51.450;7.346;2023-05-20T11:50:32;21.00;99.90
12588;DHT22;6359;51.450;7.346;2023-05-20T11:53:01;21.60;99.90
12588;DHT22;6359;51.450;7.346;2023-05-20T11:55:30;21.80;99.90
12588;DHT22;6359;51.450;7.346;2023-05-20T11:57:58;21.40;99.90
12588;DHT22;6359;51.450;7.346;2023-05-20T12:00:25;21.20;99.90
12588;DHT22;6359;51.450;7.346;2023-05-20T12:02:52;21.30;99.90
12588;DHT22;6359;51.450;7.346;2023-05-20T12:05:20;20.80;99.90
12588;DHT22;6359;51.450;7.346;2023-05-20T12:07:47;21.30;99.90
12588;DHT22;6359;51.450;7.346;2023-05-20T12:10:14;21.10;99.90
12588;DHT22;6359;51.450;7.346;2023-05-20T12:12:42;21.10;99.90
12588;DHT22;6359;51.450;7.346;2023-05-20T12:15:10;21.10;99.90
12588;DHT22;6359;51.450;7.346;2023-05-20T12:17:45;21.00;99.90
12588;DHT22;6359;51.450;7.346;2023-05-20T12:20:13;21.00;99.90
12588;DHT22;6359;51.450;7.346;2023-05-20T12:22:42;20.60;99.90
12588;DHT22;6359;51.450;7.346;2023-05-20T12:25:11;20.50;99.90
12588;DHT22;6359;51.450;7.346;2023-05-20T12:27:39;20.40;99.90
12588;DHT22;6359;51.450;7.346;2023-05-20T12:30:07;20.50;99.90
12588;DHT22;6359;51.450;7.346;2023-05-20T12:32:35;20.60;99.90
12588;DHT22;6359;51.450;7.346;2023-05-20T12:35:03;20.80;99.90
12588;DHT22;6359;51.450;7.346;2023-05-20T12:37:30;20.70;99.90
12588;DHT22;6359;51.450;7.346;2023-05-20T12:39:58;20.50;99.90
12588;DHT22;6359;51.450;7.346;2023-05-20T12:42:25;20.30;99.90
12588;DHT22;6359;51.450;7.346;2023-05-20T12:44:52;20.30;99.90
12588;DHT22;6359;51.450;7.346;2023-05-20T12:47:20;20.50;99.90
12588;DHT22;6359;51.450;7.346;2023-05-20T12:49:46;20.40;99.90
12588;DHT22;6359;51.450;7.346;2023-05-20T12:52:14;20.40;99.90
12588;DHT22;6359;51.450;7.346;2023-05-20T12:54:40;20.40;99.90
12588;DHT22;6359;51.450;7.346;2023-05-20T12:57:09;20.20;99.90
12588;DHT22;6359;51.450;7.346;2023-05-20T12:59:36;19.80;99.90
12588;DHT22;6359;51.450;7.346;2023-05-20T13:02:03;19.80;99.90
12588;DHT22;6359;51.450;7.346;2023-05-20T13:04:30;19.70;99.90
12588;DHT22;6359;51.450;7.346;2023-05-20T13:06:57;19.70;99.90
12588;DHT22;6359;51.450;7.346;2023-05-20T13:09:24;19.60;99.90
12588;DHT22;6359;51.450;7.346;2023-05-20T13:11:51;19.80;99.90
12588;DHT22;6359;51.450;7.346;2023-05-20T13:14:19;20.00;99.90
12588;DHT22;6359;51.450;7.346;2023-05-20T13:16:48;20.30;99.90
12588;DHT22;6359;51.450;7.346;2023-05-20T13:19:18;20.40;99.90
12588;DHT22;6359;51.450;7.346;2023-05-20T13:21:46;20.40;99.90
12588;DHT22;6359;51.450;7.346;2023-05-20T13:24:13;20.70;99.90
12588;DHT22;6359;51.450;7.346;2023-05-20T13:26:40;20.90;99.90
12588;DHT22;6359;51.450;7.346;2023-05-20T13:29:07;20.90;99.90
12588;DHT22;6359;51.450;7.346;2023-05-20T13:31:35;20.90;99.90
12588;DHT22;6359;51.450;7.346;2023-05-20T13:34:02;20.80;99.90
12588;DHT22;6359;51.450;7.346;2023-05-20T13:36:29;20.80;99.90
12588;DHT22;6359;51.450;7.346;2023-05-20T13:38:56;20.60;99.90
12588;DHT22;6359;51.450;7.346;2023-05-20T13:41:23;20.40;99.90
12588;DHT22;6359;51.450;7.346;2023-05-20T13:43:51;20.10;99.90
12588;DHT22;6359;51.450;7.346;2023-05-20T13:46:17;20.00;99.90
12588;DHT22;6359;51.450;7.346;2023-05-20T13:48:46;20.20;99.90
12588;DHT22;6359;51.450;7.346;2023-05-20T13:51:13;20.40;99.90
12588;DHT22;6359;51.450;7.346;2023-05-20T13:53:39;20.10;99.90
12588;DHT22;6359;51.450;7.346;2023-05-20T13:56:06;20.20;99.90
12588;DHT22;6359;51.450;7.346;2023-05-20T13:58:34;20.10;99.90
12588;DHT22;6359;51.450;7.346;2023-05-20T14:01:01;19.90;99.90
12588;DHT22;6359;51.450;7.346;2023-05-20T14:03:29;19.80;99.90
12588;DHT22;6359;51.450;7.346;2023-05-20T14:05:59;19.70;99.90
12588;DHT22;6359;51.450;7.346;2023-05-20T14:08:26;19.50;99.90
12588;DHT22;6359;51.450;7.346;2023-05-20T14:10:53;19.70;99.90
12588;DHT22;6359;51.450;7.346;2023-05-20T14:13:20;20.00;99.90
12588;DHT22;6359;51.450;7.346;2023-05-20T14:15:47;20.30;99.90
12588;DHT22;6359;51.450;7.346;2023-05-20T14:18:15;20.30;99.90
12588;DHT22;6359;51.450;7.346;2023-05-20T14:20:42;20.40;99.90
12588;DHT22;6359;51.450;7.346;2023-05-20T14:23:11;20.40;99.90
12588;DHT22;6359;51.450;7.346;2023-05-20T14:25:38;20.50;99.90
12588;DHT22;6359;51.450;7.346;2023-05-20T14:28:05;20.80;99.90
12588;DHT22;6359;51.450;7.346;2023-05-20T14:30:33;20.70;99.90
12588;DHT22;6359;51.450;7.346;2023-05-20T14:32:59;20.20;99.90
12588;DHT22;6359;51.450;7.346;2023-05-20T14:35:26;19.80;99.90
12588;DHT22;6359;51.450;7.346;2023-05-20T14:37:53;19.60;99.90
12588;DHT22;6359;51.450;7.346;2023-05-20T14:40:21;19.50;99.90
12588;DHT22;6359;51.450;7.346;2023-05-20T14:42:48;19.60;99.90
12588;DHT22;6359;51.450;7.346;2023-05-20T14:45:15;19.70;99.90
12588;DHT22;6359;51.450;7.346;2023-05-20T14:47:42;19.70;99.90
12588;DHT22;6359;51.450;7.346;2023-05-20T14:50:10;19.40;99.90
12588;DHT22;6359;51.450;7.346;2023-05-20T14:52:36;19.00;99.90
12588;DHT22;6359;51.450;7.346;2023-05-20T14:55:04;19.00;99.90
12588;DHT22;6359;51.450;7.346;2023-05-20T14:57:34;19.10;99.90
12588;DHT22;6359;51.450;7.346;2023-05-20T15:00:01;19.00;99.90
12588;DHT22;6359;51.450;7.346;2023-05-20T15:02:28;18.90;99.90
12588;DHT22;6359;51.450;7.346;2023-05-20T15:04:55;18.70;99.90
12588;DHT22;6359;51.450;7.346;2023-05-20T15:07:22;18.60;99.90
12588;DHT22;6359;51.450;7.346;2023-05-20T15:09:49;18.50;99.90
12588;DHT22;6359;51.450;7.346;2023-05-20T15:12:16;18.40;99.90
12588;DHT22;6359;51.450;7.346;2023-05-20T15:14:44;18.40;99.90
12588;DHT22;6359;51.450;7.346;2023-05-20T15:17:11;18.30;99.90
12588;DHT22;6359;51.450;7.346;2023-05-20T15:19:38;18.20;99.90
12588;DHT22;6359;51.450;7.346;2023-05-20T15:22:06;18.00;99.90
12588;DHT22;6359;51.450;7.346;2023-05-20T15:24:32;17.90;99.90
12588;DHT22;6359;51.450;7.346;2023-05-20T15:26:59;18.00;99.90
12588;DHT22;6359;51.450;7.346;2023-05-20T15:29:26;18.00;99.90
12588;DHT22;6359;51.450;7.346;2023-05-20T15:31:54;17.90;99.90
12588;DHT22;6359;51.450;7.346;2023-05-20T15:34:21;17.90;99.90
12588;DHT22;6359;51.450;7.346;2023-05-20T15:36:48;17.80;99.90
12588;DHT22;6359;51.450;7.346;2023-05-20T15:39:15;17.70;99.90
12588;DHT22;6359;51.450;7.346;2023-05-20T15:41:42;17.60;99.90
12588;DHT22;6359;51.450;7.346;2023-05-20T15:44:09;17.50;99.90
12588;DHT22;6359;51.450;7.346;2023-05-20T15:46:36;17.50;99.90
12588;DHT22;6359;51.450;7.346;2023-05-20T15:49:05;17.60;99.90
12588;DHT22;6359;51.450;7.346;2023-05-20T15:51:32;17.50;99.90
12588;DHT22;6359;51.450;7.346;2023-05-20T15:53:59;17.50;99.90